Time;durP1;ratioP1;P1;durP2;ratioP2;P2;SDS_P1;SDS_P2;PMS_P1;PMS_P2;Temp;Humidity;BMP_temperature;BMP_pressure;BME280_temperature;BME280_humidity;BME280_pressure;Samples;Min_cycle;Max_cycle;Signal;HPM_P1;HPM_P2
2022/08/06 00:02:30;;;;;;;;;2.00;2.00;;;;;18.96;41.84;102164.53;4956640;28;45360;-59
2022/08/06 00:04:57;;;;;;;;;3.00;3.00;;;;;18.93;41.81;102154.13;4956857;28;45409;-60
2022/08/06 00:07:22;;;;;;;;;2.00;1.25;;;;;18.89;42.14;102165.72;4956819;28;46312;-59
2022/08/06 00:09:48;;;;;;;;;3.00;1.25;;;;;18.84;42.18;102168.53;4956151;28;45556;-59
2022/08/06 00:12:14;;;;;;;;;1.75;1.75;;;;;18.81;42.30;102175.69;4956519;28;45449;-59
2022/08/06 00:14:39;;;;;;;;;2.00;2.00;;;;;18.74;42.64;102182.13;4958057;28;45311;-59
2022/08/06 00:17:05;;;;;;;;;2.50;2.00;;;;;18.70;42.31;102178.75;4958651;28;46116;-61
2022/08/06 00:19:30;;;;;;;;;3.00;3.00;;;;;18.70;42.69;102173.47;4958469;28;45495;-61
2022/08/06 00:21:55;;;;;;;;;1.50;1.50;;;;;18.65;42.66;102171.94;4958950;28;45224;-59
2022/08/06 00:24:21;;;;;;;;;1.75;1.75;;;;;18.62;42.81;102185.16;4958473;28;45474;-59
2022/08/06 00:26:46;;;;;;;;;3.75;1.75;;;;;18.58;43.02;102180.94;4958807;28;46181;-60
2022/08/06 00:29:13;;;;;;;;;3.50;3.00;;;;;18.54;43.25;102165.28;4955987;28;45440;-59
2022/08/06 00:31:38;;;;;;;;;3.50;2.00;;;;;18.53;43.10;102163.56;4950810;28;45353;-60
2022/08/06 00:34:04;;;;;;;;;4.00;3.00;;;;;18.49;43.26;102169.00;4957545;28;45451;-61
2022/08/06 00:36:31;;;;;;;;;1.25;1.25;;;;;18.44;43.64;102179.72;4956752;28;45700;-61
2022/08/06 00:38:58;;;;;;;;;3.00;2.50;;;;;18.41;43.75;102178.94;4956800;28;45585;-61
2022/08/06 00:41:24;;;;;;;;;1.75;1.00;;;;;18.40;43.63;102178.09;4958639;28;45375;-61
2022/08/06 00:43:49;;;;;;;;;1.75;1.75;;;;;18.38;44.13;102177.28;4958242;28;45352;-62
2022/08/06 00:46:15;;;;;;;;;3.00;2.00;;;;;18.36;44.09;102186.16;4973044;28;45308;-61
2022/08/06 00:48:40;;;;;;;;;5.00;3.00;;;;;18.34;43.91;102194.09;4960206;28;45280;-59
2022/08/06 00:51:06;;;;;;;;;2.50;2.50;;;;;18.33;43.99;102181.88;4958394;28;45375;-59
2022/08/06 00:53:31;;;;;;;;;3.00;1.00;;;;;18.33;44.44;102181.00;4957684;28;45440;-59
2022/08/06 00:55:56;;;;;;;;;1.50;1.25;;;;;18.31;44.42;102180.22;4957865;28;45403;-61
2022/08/06 00:58:22;;;;;;;;;2.00;1.00;;;;;18.29;44.16;102192.56;4957873;28;46407;-59
2022/08/06 01:00:47;;;;;;;;;2.00;2.00;;;;;18.25;44.74;102186.56;4958568;28;45249;-59
2022/08/06 01:03:16;;;;;;;;;3.00;3.00;;;;;18.24;44.47;102185.72;4958383;28;45418;-59
2022/08/06 01:05:44;;;;;;;;;2.25;2.25;;;;;18.20;44.54;102194.59;4957925;28;47411;-59
2022/08/06 01:08:11;;;;;;;;;2.00;2.00;;;;;18.15;45.03;102195.69;4957463;28;45812;-59
2022/08/06 01:10:36;;;;;;;;;2.00;2.00;;;;;18.10;44.81;102192.38;4969781;28;45331;-59
2022/08/06 01:13:02;;;;;;;;;2.00;2.00;;;;;18.08;45.20;102188.94;4956389;28;45300;-59
2022/08/06 01:15:27;;;;;;;;;3.00;3.00;;;;;18.05;45.04;102183.78;4951010;28;45304;-59
2022/08/06 01:17:58;;;;;;;;;2.00;2.00;;;;;18.01;45.21;102188.28;4957863;28;45228;-57
2022/08/06 01:20:49;;;;;;;;;2.75;2.00;;;;;17.99;45.59;102189.25;4957976;28;45268;-59
2022/08/06 01:23:33;;;;;;;;;3.50;1.00;;;;;17.95;45.99;102199.03;4948432;28;45305;-59
2022/08/06 01:26:17;;;;;;;;;3.00;1.00;;;;;17.88;45.82;102201.03;4957733;28;45308;-59
2022/08/06 01:28:55;;;;;;;;;2.00;2.00;;;;;17.84;45.98;102201.19;4957515;28;45613;-59
2022/08/06 01:31:28;;;;;;;;;2.00;2.00;;;;;17.81;46.14;102212.63;4957990;28;45509;-59
2022/08/06 01:34:03;;;;;;;;;6.50;6.50;;;;;17.80;46.02;102208.28;4956579;28;45228;-59
2022/08/06 01:36:42;;;;;;;;;2.75;1.75;;;;;17.79;46.21;102210.97;4957643;28;46203;-59
2022/08/06 01:39:11;;;;;;;;;3.00;2.00;;;;;17.77;46.27;102211.03;4941199;28;45617;-59
2022/08/06 01:41:43;;;;;;;;;2.75;2.00;;;;;17.78;46.36;102206.63;4951033;28;45349;-59
2022/08/06 01:44:20;;;;;;;;;2.00;2.00;;;;;17.76;46.45;102208.47;4946362;28;45485;-59
2022/08/06 01:46:50;;;;;;;;;2.00;2.00;;;;;17.74;46.82;102205.03;4974714;28;45441;-59
2022/08/06 01:49:22;;;;;;;;;1.75;1.75;;;;;17.71;46.65;102206.00;4957395;28;45575;-59
2022/08/06 01:51:50;;;;;;;;;2.75;2.00;;;;;17.66;46.71;102200.00;4957698;28;45295;-59
2022/08/06 01:54:18;;;;;;;;;1.25;1.25;;;;;17.61;46.86;102202.75;4951372;28;45264;-59
2022/08/06 01:56:46;;;;;;;;;2.25;2.00;;;;;17.59;47.05;102198.47;4956056;28;48035;-59
2022/08/06 01:59:16;;;;;;;;;1.00;1.00;;;;;17.55;47.35;102195.09;4957591;28;45338;-60
2022/08/06 02:01:46;;;;;;;;;3.75;2.50;;;;;17.55;47.42;102199.50;4957741;28;45269;-60
2022/08/06 02:04:14;;;;;;;;;1.50;1.50;;;;;17.52;47.59;102207.47;4956136;28;45414;-59
2022/08/06 02:06:43;;;;;;;;;2.00;2.00;;;;;17.50;47.52;102197.03;4957220;28;46493;-58
2022/08/06 02:09:13;;;;;;;;;3.00;2.50;;;;;17.47;47.51;102201.53;4955945;28;45662;-60
2022/08/06 02:11:40;;;;;;;;;1.00;1.00;;;;;17.43;47.85;102195.53;4957555;28;45278;-60
2022/08/06 02:14:08;;;;;;;;;2.00;2.00;;;;;17.41;47.81;102196.44;4957025;28;45404;-60
2022/08/06 02:16:39;;;;;;;;;3.50;3.00;;;;;17.40;48.00;102198.22;4957265;28;46109;-60
2022/08/06 02:19:07;;;;;;;;;3.00;2.00;;;;;17.39;48.27;102195.66;4957022;28;45220;-60
2022/08/06 02:21:34;;;;;;;;;4.00;2.75;;;;;17.34;47.98;102198.44;4957371;28;45216;-60
2022/08/06 02:24:06;;;;;;;;;2.00;2.00;;;;;17.31;48.06;102202.03;4959665;28;45365;-59
2022/08/06 02:26:34;;;;;;;;;2.75;2.75;;;;;17.26;48.46;102195.19;4953725;28;46247;-60
2022/08/06 02:29:03;;;;;;;;;5.75;3.00;;;;;17.21;48.47;102190.06;4964603;28;45580;-60
2022/08/06 02:31:29;;;;;;;;;2.50;2.00;;;;;17.18;48.66;102198.06;4960029;28;45291;-60
2022/08/06 02:33:54;;;;;;;;;4.00;2.75;;;;;17.17;48.67;102192.84;4959658;28;45305;-60
2022/08/06 02:36:26;;;;;;;;;3.00;2.00;;;;;17.14;48.82;102195.56;4958551;28;46270;-59
2022/08/06 02:38:58;;;;;;;;;3.00;3.00;;;;;17.10;48.91;102194.81;4957667;28;45445;-60
2022/08/06 02:41:37;;;;;;;;;3.75;3.00;;;;;17.07;49.11;102194.91;4956756;28;45579;-59
2022/08/06 02:44:11;;;;;;;;;1.00;1.00;;;;;17.05;49.40;102204.63;4958365;28;45414;-60
2022/08/06 02:46:57;;;;;;;;;2.00;2.00;;;;;17.00;49.33;102201.25;4968667;28;45261;-59
2022/08/06 02:49:26;;;;;;;;;2.25;2.25;;;;;16.99;49.41;102204.78;4958080;28;45752;-60
2022/08/06 02:51:58;;;;;;;;;3.50;3.00;;;;;16.98;49.27;102193.41;4956395;28;45417;-60
2022/08/06 02:54:31;;;;;;;;;5.00;2.50;;;;;16.95;49.52;102198.78;4958351;28;45297;-59
2022/08/06 02:57:03;;;;;;;;;2.00;2.00;;;;;16.91;49.39;102193.66;4958112;28;45405;-59
2022/08/06 02:59:33;;;;;;;;;2.00;2.00;;;;;16.91;50.17;102196.28;4957620;28;45905;-60
2022/08/06 03:02:02;;;;;;;;;3.25;2.75;;;;;16.88;49.89;102197.25;4958223;28;45233;-59
2022/08/06 03:04:29;;;;;;;;;3.00;3.00;;;;;16.87;49.83;102198.16;4958146;28;45452;-59
2022/08/06 03:06:57;;;;;;;;;2.25;2.00;;;;;16.85;50.01;102197.34;4957592;28;47010;-60
2022/08/06 03:09:23;;;;;;;;;3.00;3.00;;;;;16.76;49.99;102186.25;4957459;28;45355;-60
2022/08/06 03:11:51;;;;;;;;;2.00;2.00;;;;;16.80;50.22;102191.34;4954355;28;45629;-59
2022/08/06 03:14:20;;;;;;;;;2.50;2.00;;;;;16.81;50.05;102186.97;4957110;28;46197;-61
2022/08/06 03:16:47;;;;;;;;;2.00;2.00;;;;;16.79;49.98;102194.03;4957953;28;45475;-61
2022/08/06 03:19:13;;;;;;;;;3.00;3.00;;;;;16.78;50.00;102187.06;4956784;28;45449;-61
2022/08/06 03:21:40;;;;;;;;;2.00;2.00;;;;;16.73;50.25;102184.59;4958005;28;45466;-61
2022/08/06 03:24:07;;;;;;;;;1.00;1.00;;;;;16.67;50.43;102180.38;4957682;28;45535;-60
2022/08/06 03:26:35;;;;;;;;;2.25;0.75;;;;;16.65;50.55;102182.16;4957978;28;46264;-61
2022/08/06 03:29:01;;;;;;;;;3.50;2.00;;;;;16.62;50.51;102182.25;4958736;28;45631;-61
2022/08/06 03:31:29;;;;;;;;;2.50;2.00;;;;;16.59;50.56;102184.94;4959397;28;45496;-60
2022/08/06 03:33:54;;;;;;;;;4.00;3.50;;;;;16.56;51.10;102192.06;4957954;28;45153;-61
2022/08/06 03:36:22;;;;;;;;;2.50;2.50;;;;;16.53;51.35;102190.38;4959275;28;45307;-60
2022/08/06 03:38:57;;;;;;;;;2.50;2.50;;;;;16.51;51.45;102191.34;4954862;28;45735;-60
2022/08/06 03:41:28;;;;;;;;;2.00;2.00;;;;;16.47;51.37;102181.84;4949485;28;45385;-60
2022/08/06 03:43:53;;;;;;;;;3.50;3.50;;;;;16.42;51.52;102181.97;4958573;28;45465;-60
2022/08/06 03:46:28;;;;;;;;;2.00;2.00;;;;;16.39;51.56;102180.28;4978052;28;46086;-60
2022/08/06 03:48:59;;;;;;;;;2.75;2.00;;;;;16.37;51.40;102189.97;4958784;28;45416;-60
2022/08/06 03:51:27;;;;;;;;;3.00;3.00;;;;;16.38;51.68;102196.06;4971989;28;45367;-59
2022/08/06 03:53:54;;;;;;;;;2.50;2.25;;;;;16.34;51.80;102186.56;4959008;28;45402;-59
2022/08/06 03:56:26;;;;;;;;;3.25;2.50;;;;;16.29;51.99;102186.72;4958793;28;46544;-59
2022/08/06 03:58:54;;;;;;;;;3.00;3.00;;;;;16.26;52.16;102184.19;4958790;28;45612;-61
2022/08/06 04:01:26;;;;;;;;;2.75;2.25;;;;;16.24;52.14;102187.75;4958921;28;45237;-61
2022/08/06 04:03:52;;;;;;;;;3.25;3.00;;;;;16.20;52.22;102186.94;4958798;28;45388;-60
2022/08/06 04:06:20;;;;;;;;;4.75;3.00;;;;;16.20;52.06;102191.34;4958536;28;46400;-61
2022/08/06 04:08:46;;;;;;;;;3.75;2.25;;;;;16.17;52.13;102188.81;4952381;28;45689;-61
2022/08/06 04:11:12;;;;;;;;;2.75;2.75;;;;;16.16;52.52;102195.81;4959328;28;45241;-60
2022/08/06 04:13:39;;;;;;;;;2.00;2.00;;;;;16.11;52.02;102188.06;4960654;28;45343;-60
2022/08/06 04:16:05;;;;;;;;;3.00;3.00;;;;;16.07;52.25;102196.06;4958435;28;46431;-61
2022/08/06 04:18:37;;;;;;;;;2.75;2.00;;;;;16.09;52.05;102200.38;4958175;28;45370;-60
2022/08/06 04:21:07;;;;;;;;;2.25;2.25;;;;;16.07;52.23;102199.56;4958712;28;45244;-60
2022/08/06 04:23:33;;;;;;;;;1.00;1.00;;;;;16.06;52.20;102208.31;4958653;28;45432;-60
2022/08/06 04:26:04;;;;;;;;;2.75;2.25;;;;;16.07;52.28;102202.19;4958296;28;45970;-61
2022/08/06 04:28:33;;;;;;;;;1.50;1.50;;;;;16.05;52.17;102211.84;4958341;28;45742;-60
2022/08/06 04:30:59;;;;;;;;;4.25;3.00;;;;;16.04;52.43;102212.75;4946079;28;45243;-60
2022/08/06 04:33:27;;;;;;;;;4.00;3.00;;;;;16.00;52.31;102204.97;4958229;28;45209;-61
2022/08/06 04:35:52;;;;;;;;;2.00;2.00;;;;;15.96;52.90;102217.31;4958347;28;46364;-60
2022/08/06 04:38:21;;;;;;;;;4.50;3.25;;;;;15.92;52.70;102210.44;4957959;28;45224;-61
2022/08/06 04:40:48;;;;;;;;;2.25;2.25;;;;;15.87;52.77;102217.56;4945414;28;45229;-61
2022/08/06 04:43:14;;;;;;;;;2.75;2.25;;;;;15.89;52.52;102222.78;4958102;28;45513;-62
2022/08/06 04:45:41;;;;;;;;;2.50;2.25;;;;;15.89;52.98;102222.78;4957753;28;45208;-61
2022/08/06 04:48:11;;;;;;;;;4.00;2.00;;;;;15.88;52.86;102224.53;4958760;28;45246;-61
2022/08/06 04:50:38;;;;;;;;;2.75;1.00;;;;;15.89;52.83;102233.25;4945757;28;45374;-61
2022/08/06 04:53:12;;;;;;;;;3.00;3.00;;;;;15.89;52.79;102244.59;4957954;28;45205;-61
2022/08/06 04:55:39;;;;;;;;;3.75;3.00;;;;;15.90;52.61;102238.47;4958308;28;46375;-60
2022/08/06 04:58:06;;;;;;;;;3.00;2.00;;;;;15.89;52.64;102241.13;4957951;28;45655;-61
2022/08/06 05:00:33;;;;;;;;;3.50;2.50;;;;;15.89;52.63;102244.59;4958318;28;45338;-62
2022/08/06 05:02:59;;;;;;;;;4.00;2.25;;;;;15.90;52.61;102254.19;4958126;28;45285;-61
2022/08/06 05:05:26;;;;;;;;;4.00;4.00;;;;;15.90;52.73;102245.47;4957991;28;45365;-62
2022/08/06 05:07:53;;;;;;;;;3.75;2.00;;;;;15.90;52.80;102262.06;4957649;28;45274;-63
2022/08/06 05:10:20;;;;;;;;;4.00;2.50;;;;;15.87;52.65;102245.56;4958029;28;45391;-62
2022/08/06 05:12:52;;;;;;;;;2.75;2.75;;;;;15.84;53.13;102251.75;4963703;28;45437;-61
2022/08/06 05:15:26;;;;;;;;;7.50;3.00;;;;;15.85;53.06;102255.22;4957679;28;46249;-62
2022/08/06 05:18:00;;;;;;;;;3.00;3.00;;;;;15.85;52.82;102257.84;4957600;28;45762;-62
2022/08/06 05:20:30;;;;;;;;;4.00;2.75;;;;;15.84;53.04;102256.97;4957659;28;45352;-62
2022/08/06 05:23:02;;;;;;;;;4.00;2.75;;;;;15.86;52.94;102260.44;4957873;28;45234;-62
2022/08/06 05:25:27;;;;;;;;;4.00;3.00;;;;;15.86;53.00;102265.66;4956165;28;45974;-62
2022/08/06 05:27:54;;;;;;;;;2.50;2.00;;;;;15.89;52.91;102255.09;4957210;28;45322;-61
2022/08/06 05:30:20;;;;;;;;;4.00;3.00;;;;;15.85;53.47;102261.31;4957530;28;45257;-61
2022/08/06 05:32:48;;;;;;;;;3.00;3.00;;;;;15.85;53.28;102257.84;4957788;28;45241;-61
2022/08/06 05:35:14;;;;;;;;;3.50;3.25;;;;;15.88;53.09;102258.63;4957367;28;46112;-60
2022/08/06 05:37:40;;;;;;;;;3.75;3.00;;;;;15.89;52.98;102268.22;4957690;28;45334;-61
2022/08/06 05:40:07;;;;;;;;;3.75;3.00;;;;;15.93;52.98;102267.22;4944377;28;45481;-61
2022/08/06 05:42:32;;;;;;;;;3.50;3.50;;;;;15.99;53.01;102274.94;4957559;28;45260;-61
2022/08/06 05:44:58;;;;;;;;;7.00;2.00;;;;;16.05;52.73;102271.31;4957143;28;46238;-61
2022/08/06 05:47:27;;;;;;;;;3.75;3.00;;;;;16.10;52.66;102275.53;4974383;28;45297;-61
2022/08/06 05:50:01;;;;;;;;;2.00;2.00;;;;;16.16;52.87;102271.88;4956964;28;45235;-61
2022/08/06 05:52:31;;;;;;;;;2.00;2.00;;;;;16.18;52.35;102279.69;4956043;28;45472;-60
2022/08/06 05:55:08;;;;;;;;;2.00;2.00;;;;;16.22;52.16;102279.59;4957036;28;46171;-60
2022/08/06 05:57:37;;;;;;;;;2.75;2.75;;;;;16.25;52.41;102284.75;4956715;28;45256;-60
2022/08/06 06:00:10;;;;;;;;;2.00;2.00;;;;;16.26;52.21;102281.25;4956910;28;45238;-60
2022/08/06 06:02:39;;;;;;;;;3.00;3.00;;;;;16.29;51.84;102293.41;4957281;28;45315;-60
2022/08/06 06:05:06;;;;;;;;;4.00;3.00;;;;;16.28;51.69;102289.06;4944000;28;45323;-60
2022/08/06 06:07:32;;;;;;;;;2.00;2.00;;;;;16.32;51.93;102291.56;4957223;28;45551;-61
2022/08/06 06:09:58;;;;;;;;;2.00;2.00;;;;;16.37;51.81;102291.44;4969762;28;45297;-61
2022/08/06 06:12:24;;;;;;;;;3.00;2.50;;;;;16.40;52.01;102284.31;4956545;28;45583;-61
2022/08/06 06:14:51;;;;;;;;;6.00;3.00;;;;;16.47;51.70;102290.28;4956761;28;45226;-60
2022/08/06 06:17:30;;;;;;;;;4.00;2.00;;;;;16.53;51.13;102281.38;4969961;28;45167;-61
2022/08/06 06:20:07;;;;;;;;;1.25;1.00;;;;;16.57;51.63;102286.50;4956903;28;45259;-61
2022/08/06 06:22:47;;;;;;;;;4.75;2.00;;;;;16.62;51.53;102281.16;4956727;28;45457;-60
2022/08/06 06:25:29;;;;;;;;;4.00;3.00;;;;;16.66;50.86;102278.41;4956503;28;46175;-61
2022/08/06 06:28:30;;;;;;;;;4.25;4.25;;;;;16.73;50.78;102287.81;4945544;28;45232;-60
2022/08/06 06:31:01;;;;;;;;;2.00;2.00;;;;;16.80;51.01;102287.66;4958352;28;45605;-60
2022/08/06 06:33:53;;;;;;;;;2.75;1.75;;;;;16.88;50.82;102289.16;4956425;28;45332;-60
2022/08/06 06:36:36;;;;;;;;;2.25;2.00;;;;;16.99;50.18;102275.69;4956636;28;46378;-60
2022/08/06 06:39:56;;;;;;;;;1.00;1.00;;;;;17.06;50.26;102279.03;4940229;28;45458;-61
2022/08/06 06:42:31;;;;;;;;;2.00;2.00;;;;;17.12;50.24;102277.06;4976713;28;45384;-61
2022/08/06 06:45:32;;;;;;;;;5.25;1.75;;;;;17.21;49.65;102291.69;4974254;28;45313;-60
2022/08/06 06:48:15;;;;;;;;;3.50;2.00;;;;;17.30;48.85;102292.28;4972796;28;46371;-61
2022/08/06 06:50:45;;;;;;;;;1.00;1.00;;;;;17.39;49.45;102292.88;4944332;28;45614;-61
2022/08/06 06:53:12;;;;;;;;;2.50;2.00;;;;;17.48;47.97;102292.59;4956874;28;45206;-60
2022/08/06 06:55:39;;;;;;;;;1.00;1.00;;;;;17.53;48.21;102295.94;4955153;28;45332;-58
2022/08/06 06:58:31;;;;;;;;;2.00;1.00;;;;;17.64;48.07;102291.22;4955996;28;45323;-58
2022/08/06 07:00:59;;;;;;;;;2.00;1.00;;;;;17.72;48.93;102291.84;4956106;28;45605;-59
2022/08/06 07:03:27;;;;;;;;;1.00;1.00;;;;;17.81;48.27;102290.69;4956428;28;45309;-60
2022/08/06 07:05:54;;;;;;;;;1.25;1.25;;;;;17.88;48.33;102293.06;4956411;28;45342;-59
2022/08/06 07:08:21;;;;;;;;;1.00;1.00;;;;;17.97;47.78;102291.03;4943536;28;46083;-59
2022/08/06 07:10:48;;;;;;;;;2.00;2.00;;;;;18.07;46.89;102306.47;4958909;28;45314;-59
2022/08/06 07:13:15;;;;;;;;;1.25;1.25;;;;;18.18;47.58;102295.56;4959619;28;45209;-59
2022/08/06 07:15:42;;;;;;;;;2.50;2.50;;;;;18.26;47.36;102298.81;4970771;28;45525;-59
2022/08/06 07:18:09;;;;;;;;;1.00;1.00;;;;;18.31;46.80;102306.53;4959181;28;46790;-59
2022/08/06 07:20:35;;;;;;;;;1.75;1.75;;;;;18.40;45.06;102311.47;4959149;28;45585;-59
2022/08/06 07:23:06;;;;;;;;;3.00;2.00;;;;;18.50;45.44;102312.88;4959608;28;45202;-59
2022/08/06 07:25:36;;;;;;;;;2.50;2.00;;;;;18.61;44.99;102312.47;4959195;28;45347;-60
2022/08/06 07:28:03;;;;;;;;;2.75;2.25;;;;;18.77;44.69;102316.31;4959033;28;45523;-60
2022/08/06 07:30:30;;;;;;;;;1.25;1.25;;;;;18.91;45.18;102311.41;4959024;28;45530;-60
2022/08/06 07:32:55;;;;;;;;;1.00;1.00;;;;;19.05;43.80;102316.16;4959277;28;45406;-64
2022/08/06 07:35:21;;;;;;;;;2.75;1.25;;;;;19.12;44.23;102313.22;4958972;28;45325;-59
2022/08/06 07:37:57;;;;;;;;;3.00;1.00;;;;;19.20;43.09;102318.19;4959050;28;46264;-59
2022/08/06 07:40:30;;;;;;;;;1.00;1.00;;;;;19.26;42.41;102312.72;4946011;28;45692;-61
2022/08/06 07:43:11;;;;;;;;;1.25;1.00;;;;;19.27;42.78;102305.66;4959030;28;45392;-60
2022/08/06 07:45:37;;;;;;;;;1.00;1.00;;;;;19.35;43.62;102308.84;4958893;28;45512;-61
2022/08/06 07:48:08;;;;;;;;;3.00;2.00;;;;;19.44;42.93;102319.06;4975499;28;45268;-59
2022/08/06 07:50:35;;;;;;;;;8.25;4.00;;;;;19.48;42.08;102315.38;4946330;28;45541;-61
2022/08/06 07:53:01;;;;;;;;;1.00;1.00;;;;;19.53;40.73;102320.44;4958741;28;45305;-60
2022/08/06 07:55:27;;;;;;;;;2.75;2.00;;;;;19.60;41.83;102312.25;4958874;28;45211;-60
2022/08/06 07:57:54;;;;;;;;;1.50;1.50;;;;;19.66;41.74;102319.09;4958598;28;45295;-59
2022/08/06 08:00:20;;;;;;;;;1.50;1.50;;;;;19.77;41.50;102308.06;4959005;28;45356;-59
2022/08/06 08:06:17;;;;;;;;;2.25;1.75;;;;;19.91;41.34;102308.38;4959699;28;45465;-59
2022/08/06 08:08:16;;;;;;;;;3.00;2.00;;;;;20.06;41.93;102318.31;4953845;28;45498;-60
2022/08/06 08:10:42;;;;;;;;;1.00;1.00;;;;;20.20;39.62;102320.34;4946662;28;46575;-60
2022/08/06 08:13:09;;;;;;;;;2.00;0.75;;;;;20.30;40.73;102317.25;4945781;28;45408;-61
2022/08/06 08:15:36;;;;;;;;;1.75;1.00;;;;;20.39;40.26;102325.69;4958629;28;45303;-62
2022/08/06 08:18:03;;;;;;;;;1.00;1.00;;;;;20.50;39.33;102323.50;4957640;28;45407;-60
2022/08/06 08:20:30;;;;;;;;;2.00;0.50;;;;;20.57;38.79;102335.50;4946041;28;46648;-59
2022/08/06 08:22:55;;;;;;;;;1.25;1.25;;;;;20.57;39.16;102328.41;4949844;28;45438;-59
2022/08/06 08:25:20;;;;;;;;;2.75;1.75;;;;;20.63;38.42;102329.97;4958666;28;45311;-60
2022/08/06 08:27:46;;;;;;;;;3.00;1.00;;;;;20.69;39.50;102334.97;4958204;28;45457;-61
2022/08/06 08:30:11;;;;;;;;;2.00;0.50;;;;;20.66;37.57;102324.53;4958182;28;49691;-61
2022/08/06 08:32:36;;;;;;;;;1.00;1.00;;;;;20.65;36.92;102323.69;4958603;28;45477;-62
2022/08/06 08:35:02;;;;;;;;;1.00;1.00;;;;;20.72;38.30;102323.38;4958449;28;45327;-61
2022/08/06 08:37:28;;;;;;;;;1.00;1.00;;;;;20.82;38.86;102319.38;4958474;28;46303;-59
2022/08/06 08:39:53;;;;;;;;;0.00;0.00;;;;;20.91;38.13;102319.84;4946571;28;45261;-59
2022/08/06 08:42:29;;;;;;;;;1.00;1.00;;;;;21.02;37.20;102315.84;4956978;28;45480;-60
2022/08/06 08:44:58;;;;;;;;;0.00;0.00;;;;;21.07;37.85;102320.00;4958123;28;45219;-59
2022/08/06 08:47:24;;;;;;;;;0.50;0.50;;;;;21.07;37.42;102317.38;4975099;28;45348;-60
2022/08/06 08:49:58;;;;;;;;;0.00;0.00;;;;;21.11;36.00;102316.28;4958032;28;45330;-60
2022/08/06 08:52:28;;;;;;;;;1.00;1.00;;;;;21.11;34.75;102304.84;4958305;28;45316;-58
2022/08/06 08:54:56;;;;;;;;;0.00;0.00;;;;;21.16;36.99;102308.13;4958102;28;45248;-58
2022/08/06 08:57:23;;;;;;;;;2.00;0.25;;;;;21.19;36.23;102308.84;4958122;28;45288;-58
2022/08/06 08:59:49;;;;;;;;;0.25;0.25;;;;;21.27;35.41;102305.88;4958057;28;45618;-59
2022/08/06 09:02:14;;;;;;;;;1.25;1.25;;;;;21.36;37.10;102304.59;4967498;28;45357;-58
2022/08/06 09:04:40;;;;;;;;;2.25;0.25;;;;;21.41;34.68;102308.72;4961283;28;45403;-58
2022/08/06 09:07:08;;;;;;;;;0.00;0.00;;;;;21.51;36.55;102310.00;4957566;28;45384;-59
2022/08/06 09:09:34;;;;;;;;;0.50;0.50;;;;;21.55;35.76;102316.84;4955483;28;45950;-58
2022/08/06 09:12:01;;;;;;;;;0.75;0.75;;;;;21.55;35.52;102311.56;4955683;28;45722;-59
2022/08/06 09:14:26;;;;;;;;;2.50;0.50;;;;;21.59;35.10;102317.56;4957600;28;45240;-59
2022/08/06 09:16:52;;;;;;;;;1.75;0.50;;;;;21.68;34.60;102322.41;4957347;28;45212;-59
2022/08/06 09:19:18;;;;;;;;;2.00;1.50;;;;;21.73;34.31;102316.88;4956693;28;45295;-58
2022/08/06 09:21:44;;;;;;;;;0.50;0.50;;;;;21.84;34.35;102319.88;4957942;28;45446;-59
2022/08/06 09:24:10;;;;;;;;;0.00;0.00;;;;;21.91;32.75;102317.78;4956439;28;45411;-59
2022/08/06 09:26:35;;;;;;;;;0.50;0.00;;;;;21.95;33.13;102321.97;4956572;28;47071;-59
2022/08/06 09:29:00;;;;;;;;;1.75;0.00;;;;;22.00;33.66;102319.94;4955220;28;45328;-59
2022/08/06 09:31:27;;;;;;;;;0.00;0.00;;;;;22.09;34.40;102309.78;4953963;28;45862;-59
2022/08/06 09:34:04;;;;;;;;;2.00;0.50;;;;;22.05;34.46;102317.97;4967154;28;45398;-59
2022/08/06 09:36:41;;;;;;;;;0.00;0.00;;;;;22.05;34.58;102326.78;4955536;28;46124;-59
2022/08/06 09:39:07;;;;;;;;;2.00;1.00;;;;;22.09;32.23;102328.31;4939373;28;45783;-60
2022/08/06 09:41:34;;;;;;;;;0.75;0.75;;;;;22.14;32.93;102325.44;4948660;28;45643;-60
2022/08/06 09:44:09;;;;;;;;;1.25;1.00;;;;;22.18;33.02;102316.41;4956225;28;45430;-60
2022/08/06 09:46:44;;;;;;;;;0.25;0.00;;;;;22.13;33.24;102321.94;4974804;28;46453;-60
2022/08/06 09:49:12;;;;;;;;;3.00;1.00;;;;;22.20;33.90;102319.81;4957301;28;45394;-60
2022/08/06 09:51:40;;;;;;;;;0.25;0.25;;;;;22.20;31.67;102322.47;4957633;28;45236;-60
2022/08/06 09:54:18;;;;;;;;;1.00;1.00;;;;;22.15;32.36;102316.56;4957410;28;45198;-60
2022/08/06 09:56:45;;;;;;;;;1.00;1.00;;;;;22.26;32.43;102327.47;4957274;28;46831;-65
2022/08/06 09:59:12;;;;;;;;;0.00;0.00;;;;;22.34;32.44;102314.69;4957329;28;45374;-64
2022/08/06 10:01:45;;;;;;;;;1.00;1.00;;;;;22.41;32.97;102326.66;4956922;28;45448;-62
2022/08/06 10:04:23;;;;;;;;;0.50;0.50;;;;;22.47;32.33;102325.50;4956983;28;45352;-62
2022/08/06 10:06:53;;;;;;;;;2.00;0.25;;;;;22.54;31.76;102308.34;4942908;28;46190;-61
2022/08/06 10:09:18;;;;;;;;;1.75;1.25;;;;;22.57;31.19;102328.53;4955955;28;45363;-60
2022/08/06 10:11:43;;;;;;;;;1.00;1.00;;;;;22.59;31.88;102313.38;4957216;28;45835;-61
2022/08/06 10:14:23;;;;;;;;;1.00;1.00;;;;;22.62;31.41;102310.56;4956793;28;46936;-66
2022/08/06 10:17:12;;;;;;;;;2.00;1.00;;;;;22.62;31.45;102316.72;4951035;28;45418;-60
2022/08/06 10:19:41;;;;;;;;;2.00;1.00;;;;;22.62;32.79;102316.72;4954215;28;45423;-60
2022/08/06 10:22:09;;;;;;;;;1.25;1.00;;;;;22.62;32.57;102306.13;4955287;28;45415;-62
2022/08/06 10:24:38;;;;;;;;;1.00;1.00;;;;;22.61;32.82;102301.78;4955446;28;45269;-60
2022/08/06 10:27:06;;;;;;;;;1.00;1.00;;;;;22.62;32.07;102295.53;4953642;28;48493;-53
2022/08/06 10:29:35;;;;;;;;;2.75;2.00;;;;;22.78;33.35;102307.03;4969493;28;45374;-57
2022/08/06 10:32:02;;;;;;;;;1.75;0.25;;;;;23.02;29.50;102301.34;4956374;28;45363;-56
2022/08/06 10:34:29;;;;;;;;;0.00;0.00;;;;;23.16;31.22;102303.25;4956652;28;45477;-57
2022/08/06 10:36:59;;;;;;;;;4.50;0.50;;;;;23.23;30.60;102297.53;4956370;28;46193;-56
2022/08/06 10:39:32;;;;;;;;;3.00;2.00;;;;;23.32;30.36;102283.75;4949045;28;45287;-56
2022/08/06 10:41:59;;;;;;;;;1.50;1.50;;;;;23.50;31.81;102292.47;4952559;28;45313;-57
2022/08/06 10:44:26;;;;;;;;;1.75;1.75;;;;;23.62;30.30;102298.88;4958553;28;45546;-60
2022/08/06 10:46:52;;;;;;;;;2.50;1.50;;;;;23.58;31.15;102289.41;4975939;28;46309;-60
2022/08/06 10:49:22;;;;;;;;;2.00;1.50;;;;;23.55;31.36;102289.53;4958618;28;45269;-60
2022/08/06 10:51:49;;;;;;;;;3.50;1.00;;;;;23.53;30.64;102296.75;4959296;28;45418;-61
2022/08/06 10:54:16;;;;;;;;;1.00;1.00;;;;;23.45;28.97;102285.72;4959412;28;45351;-62
2022/08/06 10:56:42;;;;;;;;;2.00;1.00;;;;;23.44;30.88;102289.31;4959156;28;46256;-64
2022/08/06 10:59:08;;;;;;;;;1.00;1.00;;;;;23.42;29.72;102284.06;4959368;28;45291;-61
2022/08/06 11:01:46;;;;;;;;;2.25;2.25;;;;;23.41;28.65;102277.06;4959571;28;45239;-61
2022/08/06 11:04:26;;;;;;;;;5.00;3.00;;;;;23.41;29.33;102279.72;5010867;28;45390;-63
2022/08/06 11:07:24;;;;;;;;;3.25;2.75;;;;;23.44;30.60;102278.72;4947606;28;45176;-59
2022/08/06 11:10:14;;;;;;;;;1.00;1.00;;;;;23.42;30.01;102270.81;4959161;28;45545;-61
2022/08/06 11:12:52;;;;;;;;;2.00;2.00;;;;;23.43;29.39;102271.69;4961278;28;45310;-57
2022/08/06 11:15:19;;;;;;;;;2.00;2.00;;;;;23.43;30.75;102269.03;4967176;28;45533;-58
2022/08/06 11:18:02;;;;;;;;;2.75;2.00;;;;;23.44;30.25;102268.09;4959022;28;46989;-58
2022/08/06 11:20:33;;;;;;;;;3.50;0.50;;;;;23.45;29.40;102268.00;4958923;28;45523;-58
2022/08/06 11:23:19;;;;;;;;;1.50;1.50;;;;;23.45;29.84;102264.50;4952538;28;45379;-58
2022/08/06 11:25:47;;;;;;;;;1.25;1.00;;;;;23.44;29.03;102263.63;4964993;28;45711;-57
2022/08/06 11:28:14;;;;;;;;;1.25;1.25;;;;;23.51;29.39;102251.72;4950327;28;46052;-57
2022/08/06 11:30:46;;;;;;;;;2.00;2.00;;;;;23.61;29.92;102242.28;4952587;28;45458;-56
2022/08/06 11:33:14;;;;;;;;;1.75;1.00;;;;;23.72;29.50;102248.78;4950289;28;45292;-57
2022/08/06 11:35:43;;;;;;;;;2.50;1.25;;;;;23.71;29.10;102249.72;5004183;28;45323;-57
2022/08/06 11:38:12;;;;;;;;;0.00;0.00;;;;;23.68;28.09;102240.16;4950815;28;46003;-56
2022/08/06 11:40:56;;;;;;;;;2.00;1.00;;;;;23.67;28.53;102244.59;4948669;28;45522;-57